Time;durP1;ratioP1;P1;durP2;ratioP2;P2;SDS_P1;SDS_P2;PMS_P1;PMS_P2;Temp;Humidity;BMP_temperature;BMP_pressure;BME280_temperature;BME280_humidity;BME280_pressure;Samples;Min_cycle;Max_cycle;Signal;HPM_P1;HPM_P2
2022/09/12 00:00:14;;;;;;;1999.90;999.90;;;;;;;11.34;93.99;99413.41;8346101;28;20521;-80
2022/09/12 00:04:44;;;;;;;1999.90;999.90;;;;;;;11.29;93.97;99403.00;8341962;28;20041;-81
2022/09/12 00:09:09;;;;;;;1999.90;999.90;;;;;;;11.24;94.01;99398.72;8343051;28;20049;-80
2022/09/12 00:13:31;;;;;;;1999.90;999.90;;;;;;;11.22;93.91;99390.94;8339998;28;20063;-80
2022/09/12 00:17:53;;;;;;;1999.90;999.90;;;;;;;11.17;93.68;99387.53;8322497;28;20041;-80
2022/09/12 00:22:15;;;;;;;1999.90;999.90;;;;;;;11.13;93.52;99391.88;8334506;28;20052;-80
2022/09/12 00:26:36;;;;;;;1999.90;999.90;;;;;;;11.11;93.73;99384.94;8346951;28;20045;-80
2022/09/12 00:30:59;;;;;;;1999.90;999.90;;;;;;;11.06;93.94;99381.53;8337947;28;20059;-80
2022/09/12 00:35:27;;;;;;;1999.90;999.90;;;;;;;11.01;93.69;99380.69;8349756;28;20075;-81
2022/09/12 00:39:48;;;;;;;1999.90;999.90;;;;;;;10.97;93.97;99377.25;8327002;28;20049;-80
2022/09/12 00:44:10;;;;;;;1999.90;999.90;;;;;;;10.96;94.14;99378.13;8344081;28;20076;-81
2022/09/12 00:48:38;;;;;;;1999.90;999.90;;;;;;;10.93;94.31;99379.88;8335676;28;20061;-80
2022/09/12 00:53:07;;;;;;;1999.90;999.90;;;;;;;10.92;94.17;99378.16;8345338;28;20710;-81
2022/09/12 00:57:42;;;;;;;1999.90;999.90;;;;;;;10.85;93.88;99367.81;8331394;28;20052;-80
2022/09/12 01:02:04;;;;;;;1999.90;999.90;;;;;;;10.81;94.28;99366.09;8347286;28;20527;-80
2022/09/12 01:06:40;;;;;;;1999.90;999.90;;;;;;;10.75;93.87;99366.13;8342221;28;20052;-80
2022/09/12 01:11:04;;;;;;;1999.90;999.90;;;;;;;10.73;93.99;99364.41;8342884;28;20045;-80
2022/09/12 01:15:35;;;;;;;1999.90;999.90;;;;;;;10.67;93.75;99359.25;8344037;28;20045;-80
2022/09/12 01:20:13;;;;;;;1999.90;999.90;;;;;;;10.62;93.80;99355.81;8345428;28;20049;-80
2022/09/12 01:25:02;;;;;;;1999.90;999.90;;;;;;;10.61;93.63;99351.50;8328741;28;20079;-80
2022/09/12 01:29:38;;;;;;;1999.90;999.90;;;;;;;10.51;93.42;99353.28;8348492;28;20041;-80
2022/09/12 01:34:21;;;;;;;1999.90;999.90;;;;;;;10.46;93.43;99350.69;8336080;28;20041;-80
2022/09/12 01:39:17;;;;;;;1999.90;999.90;;;;;;;10.44;93.62;99341.19;8343059;28;20063;-80
2022/09/12 01:44:07;;;;;;;1999.90;999.90;;;;;;;10.43;93.73;99332.56;8347002;28;20056;-80
2022/09/12 01:48:55;;;;;;;1999.90;999.90;;;;;;;10.39;93.74;99327.34;8347654;28;20057;-81
2022/09/12 01:53:26;;;;;;;1999.90;999.90;;;;;;;10.35;94.29;99325.66;8343427;28;20775;-80
2022/09/12 01:57:56;;;;;;;1999.90;999.90;;;;;;;10.32;93.56;99330.88;8349492;28;20033;-80
2022/09/12 02:02:29;;;;;;;1999.90;999.90;;;;;;;10.25;94.01;99317.06;8339053;28;20076;-80
2022/09/12 02:07:16;;;;;;;1999.90;999.90;;;;;;;10.09;93.89;99313.63;8356858;28;20049;-80
2022/09/12 02:11:46;;;;;;;1999.90;999.90;;;;;;;10.09;94.57;99316.22;8340617;28;20645;-80
2022/09/12 02:16:37;;;;;;;1999.90;999.90;;;;;;;10.07;94.10;99314.50;8336976;28;20064;-80
2022/09/12 02:21:04;;;;;;;1999.90;999.90;;;;;;;10.09;94.62;99324.00;8352790;28;20045;-80
2022/09/12 02:25:28;;;;;;;1999.90;999.90;;;;;;;10.11;94.52;99322.28;8351851;28;20041;-80
2022/09/12 02:29:51;;;;;;;1999.90;999.90;;;;;;;10.09;94.55;99318.81;8347380;28;20056;-80
2022/09/12 02:34:45;;;;;;;1999.90;999.90;;;;;;;10.07;94.26;99319.69;8349713;28;20470;-80
2022/09/12 02:39:07;;;;;;;1999.90;999.90;;;;;;;10.03;94.41;99321.41;8341738;28;20148;-80
2022/09/12 02:43:29;;;;;;;1999.90;999.90;;;;;;;10.00;94.28;99318.84;8355473;28;20477;-80
2022/09/12 02:48:10;;;;;;;1999.90;999.90;;;;;;;9.92;93.77;99318.88;8344112;28;20389;-80
2022/09/12 02:52:35;;;;;;;1999.90;999.90;;;;;;;9.90;94.08;99312.84;8327229;28;20132;-81
2022/09/12 02:56:57;;;;;;;1999.90;999.90;;;;;;;9.86;94.70;99310.22;8354280;28;20110;-81
2022/09/12 03:01:57;;;;;;;1999.90;999.90;;;;;;;9.85;93.85;99301.59;8351944;28;20197;-81
2022/09/12 03:06:33;;;;;;;1999.90;999.90;;;;;;;9.82;93.89;99311.13;8337325;28;20045;-81
2022/09/12 03:11:08;;;;;;;;;;;;;;;9.79;93.50;99303.34;8347339;28;20041;-81
2022/09/12 03:15:46;;;;;;;1999.90;999.90;;;;;;;9.73;94.10;99298.19;8337537;28;19924;-80
2022/09/12 03:20:27;;;;;;;1999.90;999.90;;;;;;;9.72;93.95;99306.84;8337857;28;20047;-80
2022/09/12 03:25:27;;;;;;;1999.90;999.90;;;;;;;9.65;93.64;99303.38;8325710;28;20503;-81
2022/09/12 03:29:54;;;;;;;1999.90;999.90;;;;;;;9.60;93.02;99295.63;8336096;28;20069;-81
2022/09/12 03:34:26;;;;;;;1999.90;999.90;;;;;;;9.58;93.75;99302.53;8344018;28;20051;-80
2022/09/12 03:39:08;;;;;;;1999.90;999.90;;;;;;;9.56;93.55;99299.09;8341944;28;20041;-80
2022/09/12 03:43:41;;;;;;;1999.90;999.90;;;;;;;9.56;93.49;99298.22;8341191;28;20091;-80
2022/09/12 03:48:30;;;;;;;1999.90;999.90;;;;;;;9.53;93.04;99299.09;8341037;28;20056;-81
2022/09/12 03:53:07;;;;;;;1999.90;999.90;;;;;;;9.51;93.76;99295.63;8347314;28;20849;-80
2022/09/12 03:57:41;;;;;;;1999.90;999.90;;;;;;;9.52;94.12;99287.00;8333556;28;20703;-80
2022/09/12 04:02:05;;;;;;;1999.90;999.90;;;;;;;9.48;93.33;99287.84;8336012;28;20140;-81
2022/09/12 04:06:28;;;;;;;1999.90;999.90;;;;;;;9.43;93.23;99291.31;8340806;28;20049;-81
2022/09/12 04:11:22;;;;;;;1999.90;999.90;;;;;;;9.41;93.95;99282.69;8343243;28;20418;-81
2022/09/12 04:15:57;;;;;;;1999.90;999.90;;;;;;;9.37;93.75;99274.94;8321534;28;20053;-81
2022/09/12 04:20:30;;;;;;;1999.90;999.90;;;;;;;9.34;93.88;99281.84;8343070;28;20498;-80
2022/09/12 04:25:22;;;;;;;1999.90;999.90;;;;;;;9.37;94.45;99280.13;8348547;28;20045;-80
2022/09/12 04:30:29;;;;;;;1999.90;999.90;;;;;;;9.34;93.37;99272.34;8343933;28;20063;-81
2022/09/12 04:35:02;;;;;;;1999.90;999.90;;;;;;;9.32;94.17;99266.28;8345933;28;20064;-81
2022/09/12 04:39:38;;;;;;;1999.90;999.90;;;;;;;9.29;93.90;99279.25;8342635;28;20077;-81
2022/09/12 04:44:08;;;;;;;1999.90;999.90;;;;;;;9.26;93.45;99270.63;8347362;28;20048;-80
2022/09/12 04:48:58;;;;;;;1999.90;999.90;;;;;;;9.26;94.07;99266.28;8308226;28;20060;-79
2022/09/12 04:53:37;;;;;;;1999.90;999.90;;;;;;;9.25;93.78;99266.31;8339931;28;20441;-81
2022/09/12 04:58:06;;;;;;;1999.90;999.90;;;;;;;9.24;93.85;99261.97;8350666;28;20100;-80
2022/09/12 05:02:48;;;;;;;1999.90;999.90;;;;;;;9.23;94.26;99260.25;8341183;28;20566;-80
2022/09/12 05:07:10;;;;;;;1999.90;999.90;;;;;;;9.25;94.48;99253.34;8328609;28;20060;-80
2022/09/12 05:11:36;;;;;;;1999.90;999.90;;;;;;;9.22;94.28;99246.44;8349554;28;20045;-80
2022/09/12 05:16:26;;;;;;;1999.90;999.90;;;;;;;9.21;94.27;99249.91;8343971;28;20052;-81
2022/09/12 05:20:48;;;;;;;1999.90;999.90;;;;;;;9.22;93.76;99261.13;8346744;28;20072;-80
2022/09/12 05:25:10;;;;;;;1999.90;999.90;;;;;;;9.22;93.71;99263.72;8340895;28;20413;-80
2022/09/12 05:29:32;;;;;;;1999.90;999.90;;;;;;;9.25;94.06;99268.88;8336458;28;20060;-81
2022/09/12 05:33:55;;;;;;;1999.90;999.90;;;;;;;9.30;94.03;99257.66;8335666;28;20115;-80
2022/09/12 05:38:27;;;;;;;1999.90;999.90;;;;;;;9.38;94.31;99276.66;8340761;28;20799;-80
2022/09/12 05:42:49;;;;;;;1999.90;999.90;;;;;;;9.39;94.15;99273.19;8349587;28;20481;-81
2022/09/12 05:47:12;;;;;;;1999.90;999.90;;;;;;;9.53;94.67;99270.59;8338825;28;20786;-78
2022/09/12 05:51:50;;;;;;;1999.90;999.90;;;;;;;9.72;95.20;99280.91;8343806;28;20121;-78
2022/09/12 05:56:29;;;;;;;1999.90;999.90;;;;;;;9.84;95.10;99286.03;8334788;28;20143;-78
2022/09/12 06:01:07;;;;;;;1999.90;999.90;;;;;;;9.95;95.21;99289.47;8307058;28;20056;-79
2022/09/12 06:05:40;;;;;;;1999.90;999.90;;;;;;;10.08;94.96;99285.09;8334836;28;20052;-78
2022/09/12 06:10:34;;;;;;;1999.90;999.90;;;;;;;10.22;94.59;99296.28;8337679;28;20107;-79
2022/09/12 06:14:57;;;;;;;1999.90;999.90;;;;;;;10.38;94.48;99290.16;8346473;28;20057;-80
2022/09/12 06:20:02;;;;;;;1999.90;999.90;;;;;;;10.58;93.15;99290.03;8347098;28;20467;-81
2022/09/12 06:24:34;;;;;;;1999.90;999.90;;;;;;;10.70;93.01;99287.38;8345028;28;20060;-81
2022/09/12 06:29:22;;;;;;;1999.90;999.90;;;;;;;11.29;91.66;99290.38;8338895;28;20129;-79
2022/09/12 06:34:02;;;;;;;1999.90;999.90;;;;;;;11.84;89.25;99301.13;8338322;28;20045;-79
2022/09/12 06:38:33;;;;;;;1999.90;999.90;;;;;;;12.12;88.41;99298.22;8349593;28;20044;-79
2022/09/12 06:43:20;;;;;;;1999.90;999.90;;;;;;;12.56;88.02;99302.84;8348198;28;20064;-81
2022/09/12 06:47:59;;;;;;;1999.90;999.90;;;;;;;13.07;85.58;99306.41;8346125;28;20041;-80
2022/09/12 06:52:57;;;;;;;1999.90;999.90;;;;;;;13.50;83.85;99303.16;8342115;28;20098;-80
2022/09/12 06:57:29;;;;;;;1999.90;999.90;;;;;;;13.91;82.30;99299.75;8346846;28;21232;-81
2022/09/12 07:02:09;;;;;;;1999.90;999.90;;;;;;;14.32;81.21;99293.69;8348801;28;20385;-80
2022/09/12 07:06:42;;;;;;;1999.90;999.90;;;;;;;14.71;80.56;99288.50;8346177;28;20076;-81
2022/09/12 07:11:33;;;;;;;1999.90;999.90;;;;;;;15.09;79.72;99292.88;8342091;28;20049;-81
2022/09/12 07:16:04;;;;;;;1999.90;999.90;;;;;;;15.34;78.67;99286.13;8342897;28;20048;-80
2022/09/12 07:20:36;;;;;;;1999.90;999.90;;;;;;;15.65;78.34;99290.59;8339703;28;20052;-80
2022/09/12 07:25:26;;;;;;;1999.90;999.90;;;;;;;16.08;77.23;99274.56;8340302;28;20111;-80
2022/09/12 07:29:54;;;;;;;1999.90;999.90;;;;;;;16.61;76.84;99288.69;8347707;28;20045;-80
2022/09/12 07:34:26;;;;;;;1999.90;999.90;;;;;;;17.14;76.21;99286.16;8337524;28;20118;-80
2022/09/12 07:39:04;;;;;;;1999.90;999.90;;;;;;;17.69;74.87;99286.09;8346297;28;20037;-80
2022/09/12 07:43:34;;;;;;;1999.90;999.90;;;;;;;18.16;73.52;99280.94;8339522;28;20060;-78
2022/09/12 07:48:00;;;;;;;1999.90;999.90;;;;;;;18.52;71.86;99266.38;8330414;28;20401;-79
2022/09/12 07:52:24;;;;;;;1999.90;999.90;;;;;;;18.92;71.24;99283.25;8338360;28;20056;-78
2022/09/12 07:56:54;;;;;;;1999.90;999.90;;;;;;;19.32;68.99;99278.06;8347965;28;20558;-80
2022/09/12 08:01:47;;;;;;;1999.90;999.90;;;;;;;19.68;67.91;99280.09;8337077;28;20049;-80
2022/09/12 08:06:15;;;;;;;1999.90;999.90;;;;;;;19.91;66.39;99269.38;8341019;28;20719;-81
2022/09/12 08:11:04;;;;;;;1999.90;999.90;;;;;;;20.08;65.68;99273.91;8336932;28;20045;-80
2022/09/12 08:16:06;;;;;;;1999.90;999.90;;;;;;;20.18;65.02;99267.31;8325923;28;20146;-81
2022/09/12 08:20:30;;;;;;;1999.90;999.90;;;;;;;20.15;65.09;99271.88;8337306;28;20130;-80
2022/09/12 08:24:56;;;;;;;1999.90;999.90;;;;;;;20.42;65.21;99264.50;8357187;28;20706;-82
2022/09/12 08:29:25;;;;;;;1999.90;999.90;;;;;;;20.90;63.85;99265.75;8351969;28;20071;-80
2022/09/12 08:34:07;;;;;;;1999.90;999.90;;;;;;;21.14;62.67;99275.09;8353996;28;20044;-81
2022/09/12 08:38:56;;;;;;;1999.90;999.90;;;;;;;21.22;62.42;99272.94;8346309;28;20096;-81
2022/09/12 08:43:56;;;;;;;1999.90;999.90;;;;;;;21.41;61.85;99279.03;8363507;28;20081;-82
2022/09/12 08:48:51;;;;;;;1999.90;999.90;;;;;;;21.74;60.89;99280.91;8372008;28;20040;-81
2022/09/12 08:53:30;;;;;;;1999.90;999.90;;;;;;;21.95;59.51;99271.00;8361297;28;20456;-81
2022/09/12 09:37:56;;;;;;;1999.90;999.90;;;;;;;23.89;55.13;99249.41;9716549;23;20110;-81
2022/09/12 09:43:05;;;;;;;1999.90;999.90;;;;;;;24.03;54.04;99249.38;8245840;28;20061;-81
2022/09/12 09:48:12;;;;;;;1999.90;999.90;;;;;;;24.23;53.61;99233.06;8256261;28;20093;-80
2022/09/12 09:53:47;;;;;;;1999.90;999.90;;;;;;;24.43;53.83;99244.28;10091599;23;20336;-80
2022/09/12 09:58:35;;;;;;;1999.90;999.90;;;;;;;24.53;53.10;99242.75;8207248;28;20165;-80
2022/09/12 10:03:59;;;;;;;1999.90;999.90;;;;;;;24.47;50.79;99227.22;8200583;28;20110;-81
2022/09/12 10:09:20;;;;;;;1999.90;999.90;;;;;;;24.65;51.92;99215.41;8192568;28;20392;-81
2022/09/12 10:14:08;;;;;;;;;;;;;;;24.80;51.47;99210.91;8209881;28;20042;-81
2022/09/12 10:18:57;;;;;;;1999.90;999.90;;;;;;;24.92;49.84;99196.78;8197261;28;20277;-81
2022/09/12 10:23:51;;;;;;;1999.90;999.90;;;;;;;25.02;48.63;99202.41;8205579;28;20069;-81
2022/09/12 10:29:10;;;;;;;1999.90;999.90;;;;;;;24.94;46.28;99185.09;8207669;28;20090;-82
2022/09/12 10:33:54;;;;;;;1999.90;999.90;;;;;;;25.10;48.48;99190.28;8207662;28;20042;-81
2022/09/12 10:39:13;;;;;;;1999.90;999.90;;;;;;;25.30;48.45;99179.16;8200329;28;20065;-81
2022/09/12 10:44:13;;;;;;;1999.90;999.90;;;;;;;25.34;46.13;99181.63;8205116;28;20130;-80
2022/09/12 10:49:27;;;;;;;1999.90;999.90;;;;;;;25.38;46.83;99178.66;8195884;28;20111;-81
2022/09/12 10:54:03;;;;;;;1999.90;999.90;;;;;;;25.45;45.39;99187.03;8199748;28;20058;-82
2022/09/12 10:58:38;;;;;;;1999.90;999.90;;;;;;;25.68;46.21;99183.69;8186076;28;20146;-82
2022/09/12 11:03:21;;;;;;;1999.90;999.90;;;;;;;25.76;45.04;99176.00;8184024;28;20374;-82
2022/09/12 11:07:59;;;;;;;1999.90;999.90;;;;;;;25.97;45.22;99170.13;8188294;28;20039;-82
2022/09/12 11:12:46;;;;;;;1999.90;999.90;;;;;;;25.76;43.92;99159.19;8201248;28;20051;-82
2022/09/12 11:17:23;;;;;;;1999.90;999.90;;;;;;;26.06;45.75;99156.19;8202633;28;20039;-79
2022/09/12 11:22:01;;;;;;;1999.90;999.90;;;;;;;26.20;42.20;99156.88;8186464;28;20051;-81
2022/09/12 11:27:03;;;;;;;1999.90;999.90;;;;;;;26.36;43.04;99156.63;8186336;28;20062;-82
2022/09/12 11:32:29;;;;;;;1999.90;999.90;;;;;;;26.40;41.61;99152.81;8194459;28;20061;-81
2022/09/12 11:37:30;;;;;;;1999.90;999.90;;;;;;;26.42;41.07;99142.91;8187941;28;20043;-81
2022/09/12 11:42:02;;;;;;;1999.90;999.90;;;;;;;26.41;40.48;99140.34;8186360;28;20437;-81
2022/09/12 11:46:35;;;;;;;1999.90;999.90;;;;;;;26.42;41.07;99144.72;8184696;28;20051;-82
2022/09/12 11:51:13;;;;;;;1999.90;999.90;;;;;;;26.62;41.08;99137.91;8177865;28;20058;-81
2022/09/12 11:55:46;;;;;;;;;;;;;;;26.76;39.62;99137.72;8179108;28;20118;-81
2022/09/12 12:00:17;;;;;;;1999.90;999.90;;;;;;;26.88;38.12;99136.78;8188751;28;20305;-81
2022/09/12 12:04:50;;;;;;;1999.90;999.90;;;;;;;26.97;38.95;99127.25;8194054;28;20055;-81
2022/09/12 12:09:19;;;;;;;1999.90;999.90;;;;;;;27.05;39.14;99115.06;8194587;28;20047;-81
2022/09/12 12:13:56;;;;;;;1999.90;999.90;;;;;;;27.17;39.49;99118.63;8190064;28;20051;-81
2022/09/12 12:18:27;;;;;;;1999.90;999.90;;;;;;;27.19;37.18;99108.69;8199107;28;20044;-80
2022/09/12 12:22:51;;;;;;;1999.90;999.90;;;;;;;26.99;36.09;99110.19;8186569;28;20051;-81
2022/09/12 12:27:42;;;;;;;1999.90;999.90;;;;;;;27.12;37.42;99120.78;8192297;28;20040;-79
2022/09/12 12:32:04;;;;;;;1999.90;999.90;;;;;;;27.14;36.48;99118.00;8184746;28;20058;-81
2022/09/12 12:36:37;;;;;;;1999.90;999.90;;;;;;;27.19;36.77;99118.50;8193229;28;20043;-81
2022/09/12 12:41:17;;;;;;;1999.90;999.90;;;;;;;27.04;34.70;99115.19;8183245;28;20391;-81
2022/09/12 12:45:39;;;;;;;1999.90;999.90;;;;;;;27.00;35.50;99100.41;8197102;28;20388;-81
2022/09/12 12:50:07;;;;;;;1999.90;999.90;;;;;;;26.95;36.08;99108.72;8188713;28;20039;-81
2022/09/12 12:54:46;;;;;;;1999.90;999.90;;;;;;;26.74;35.11;99099.66;8195747;28;20145;-80
2022/09/12 12:59:20;;;;;;;1999.90;999.90;;;;;;;26.78;35.38;99096.69;8233201;28;20057;-81
2022/09/12 13:03:45;;;;;;;1999.90;999.90;;;;;;;26.77;33.58;99086.16;8218161;28;20486;-80
2022/09/12 13:08:25;;;;;;;1999.90;999.90;;;;;;;26.76;34.31;99081.78;8227204;28;20047;-81
2022/09/12 13:12:56;;;;;;;1999.90;999.90;;;;;;;26.75;35.78;99072.94;8252906;28;20495;-81
2022/09/12 13:17:29;;;;;;;1999.90;999.90;;;;;;;26.89;35.90;99077.19;8228400;28;20057;-81
2022/09/12 13:21:56;;;;;;;1999.90;999.90;;;;;;;27.02;34.92;99064.66;8223713;28;20055;-81
2022/09/12 13:26:25;;;;;;;1999.90;999.90;;;;;;;27.13;35.85;99055.84;8236745;28;20051;-81
2022/09/12 13:31:24;;;;;;;1999.90;999.90;;;;;;;27.14;35.81;99046.03;8225375;28;20054;-81
2022/09/12 13:36:14;;;;;;;1999.90;999.90;;;;;;;27.12;33.94;99042.66;8224883;28;20124;-81
2022/09/12 13:40:52;;;;;;;1999.90;999.90;;;;;;;26.97;33.17;99040.16;8226196;28;20516;-82
2022/09/12 13:45:20;;;;;;;1999.90;999.90;;;;;;;26.99;32.88;99029.38;8225401;28;20158;-81
2022/09/12 13:49:44;;;;;;;1999.90;999.90;;;;;;;27.01;32.32;99036.31;8218881;28;20042;-81
2022/09/12 13:54:17;;;;;;;1999.90;999.90;;;;;;;26.94;32.83;99023.56;8231768;28;20130;-81
2022/09/12 13:58:59;;;;;;;1999.90;999.90;;;;;;;26.78;31.61;99016.75;8227221;28;20053;-81
2022/09/12 14:08:22;;;;;;;1999.90;999.90;;;;;;;26.93;34.62;99013.84;8240523;28;20043;-80
2022/09/12 14:12:52;;;;;;;1999.90;999.90;;;;;;;26.96;32.70;99008.31;8242700;28;20071;-82
2022/09/12 14:18:24;;;;;;;1999.90;999.90;;;;;;;26.86;33.70;99005.50;8456939;23;20069;-81
2022/09/12 16:51:19;;;;;;;1999.90;999.90;;;;;;;24.35;43.66;98928.94;8118723;29;20059;-82
2022/09/12 16:55:49;;;;;;;1999.90;999.90;;;;;;;23.55;47.69;98933.34;8098328;29;20127;-82
2022/09/12 17:00:25;;;;;;;1999.90;999.90;;;;;;;23.08;49.22;98925.75;8105290;29;20056;-82
2022/09/12 17:04:47;;;;;;;;;;;;;;;22.63;50.93;98918.84;8096333;29;20104;-80
2022/09/12 17:09:10;;;;;;;1999.90;999.90;;;;;;;22.24;54.34;98915.00;8109898;29;20326;-81
2022/09/12 17:13:32;;;;;;;1999.90;999.90;;;;;;;21.82;53.91;98918.34;8088333;29;20079;-81
2022/09/12 17:18:14;;;;;;;1999.90;999.90;;;;;;;21.51;54.06;98913.97;8086696;29;20060;-81
2022/09/12 17:22:43;;;;;;;1999.90;999.90;;;;;;;21.17;54.74;98912.31;8088711;29;20052;-80
2022/09/12 17:27:05;;;;;;;1999.90;999.90;;;;;;;20.90;56.92;98923.47;8082372;29;20451;-80
2022/09/12 17:31:27;;;;;;;1999.90;999.90;;;;;;;20.60;57.88;98915.38;8100651;29;20392;-80
2022/09/12 17:35:49;;;;;;;1999.90;999.90;;;;;;;20.38;58.17;98920.91;8088931;29;20060;-81
2022/09/12 17:40:11;;;;;;;1999.90;999.90;;;;;;;20.16;59.07;98915.88;8101071;29;20041;-80
2022/09/12 17:44:34;;;;;;;1999.90;999.90;;;;;;;19.91;60.44;98918.88;8101790;29;20116;-81
2022/09/12 17:48:57;;;;;;;1999.90;999.90;;;;;;;19.66;61.14;98920.19;8082883;29;20056;-80
2022/09/12 17:53:19;;;;;;;1999.90;999.90;;;;;;;19.45;62.30;98917.66;8092659;29;20053;-81
2022/09/12 17:57:47;;;;;;;1999.90;999.90;;;;;;;19.26;62.24;98912.41;8093067;29;20044;-80
2022/09/12 18:02:11;;;;;;;1999.90;999.90;;;;;;;18.98;64.02;98936.50;8077559;29;20053;-81
2022/09/12 18:06:33;;;;;;;1999.90;999.90;;;;;;;18.75;66.99;98928.81;8093271;29;20056;-81
2022/09/12 18:11:03;;;;;;;1999.90;999.90;;;;;;;18.61;68.04;98933.78;8095102;29;20714;-81
2022/09/12 18:15:33;;;;;;;1999.90;999.90;;;;;;;18.44;68.33;98934.53;8078992;29;20056;-81
2022/09/12 18:19:55;;;;;;;1999.90;999.90;;;;;;;18.30;69.28;98934.28;8092317;29;20545;-81
2022/09/12 18:24:30;;;;;;;1999.90;999.90;;;;;;;18.15;69.99;98935.81;8096051;29;20044;-81
2022/09/12 18:28:52;;;;;;;1999.90;999.90;;;;;;;17.97;69.85;98929.56;8092164;29;20108;-81
2022/09/12 18:33:20;;;;;;;1999.90;999.90;;;;;;;17.84;70.41;98941.47;8082722;29;20064;-80
2022/09/12 18:37:44;;;;;;;1999.90;999.90;;;;;;;17.69;70.79;98939.47;8093728;29;20048;-81
2022/09/12 18:42:06;;;;;;;1999.90;999.90;;;;;;;17.54;71.88;98933.03;8089943;29;20048;-81
2022/09/12 18:46:29;;;;;;;1999.90;999.90;;;;;;;17.44;71.18;98940.44;8095677;29;20641;-80
2022/09/12 18:50:51;;;;;;;1999.90;999.90;;;;;;;17.31;71.59;98952.31;8098585;29;20056;-81
2022/09/12 18:55:13;;;;;;;1999.90;999.90;;;;;;;17.18;72.33;98953.69;8088181;29;20554;-80
2022/09/12 18:59:35;;;;;;;1999.90;999.90;;;;;;;17.01;73.34;98954.34;8086631;29;20303;-81
2022/09/12 19:04:06;;;;;;;1999.90;999.90;;;;;;;16.89;73.34;98947.78;8086490;29;20057;-81
2022/09/12 19:08:28;;;;;;;1999.90;999.90;;;;;;;16.77;72.13;98950.84;8101345;29;20049;-82
2022/09/12 19:12:50;;;;;;;1999.90;999.90;;;;;;;16.65;72.84;98946.03;8087142;29;20414;-81
2022/09/12 19:17:19;;;;;;;1999.90;999.90;;;;;;;16.54;72.83;98935.09;8095481;29;20055;-82
2022/09/12 19:21:41;;;;;;;1999.90;999.90;;;;;;;16.42;73.72;98946.00;8090252;29;20074;-79
2022/09/12 19:26:07;;;;;;;1999.90;999.90;;;;;;;16.28;74.41;98931.59;8078627;29;20048;-80
2022/09/12 19:30:29;;;;;;;1999.90;999.90;;;;;;;16.19;75.37;98933.69;8090242;29;20070;-79
2022/09/12 19:34:51;;;;;;;1999.90;999.90;;;;;;;16.09;76.06;98927.91;8096426;29;20082;-78
2022/09/12 19:39:14;;;;;;;1999.90;999.90;;;;;;;15.99;76.41;98916.06;8085965;29;20622;-78
2022/09/12 19:43:36;;;;;;;1999.90;999.90;;;;;;;15.89;77.02;98899.78;8088626;29;20067;-78
2022/09/12 19:47:57;;;;;;;1999.90;999.90;;;;;;;15.79;77.49;98898.38;8090546;29;20053;-79
2022/09/12 19:52:19;;;;;;;1999.90;999.90;;;;;;;15.68;78.33;98888.28;8091149;29;20052;-79
2022/09/12 19:56:41;;;;;;;1999.90;999.90;;;;;;;15.56;77.50;98891.25;8095770;29;20062;-80
2022/09/12 20:01:12;;;;;;;1999.90;999.90;;;;;;;15.50;78.59;98881.00;8092165;29;20081;-78
2022/09/12 20:05:34;;;;;;;1999.90;999.90;;;;;;;15.40;79.32;98879.56;8093810;29;20902;-78
2022/09/12 20:10:03;;;;;;;1999.90;999.90;;;;;;;15.33;78.92;98891.13;8076220;29;20598;-80
2022/09/12 20:14:24;;;;;;;1999.90;999.90;;;;;;;15.31;79.49;98892.94;8094811;29;20044;-79
2022/09/12 20:18:47;;;;;;;1999.90;999.90;;;;;;;15.29;79.65;98897.38;8077259;29;20052;-80
2022/09/12 20:23:09;;;;;;;1999.90;999.90;;;;;;;15.23;79.47;98901.03;8090262;29;20052;-80
2022/09/12 20:27:37;;;;;;;1999.90;999.90;;;;;;;15.14;80.91;98898.69;8079588;29;20048;-80
2022/09/12 20:32:06;;;;;;;1999.90;999.90;;;;;;;15.12;81.53;98892.66;8085590;29;20698;-81
2022/09/12 20:36:27;;;;;;;1999.90;999.90;;;;;;;15.02;81.53;98896.44;8093045;29;20056;-78
2022/09/12 20:40:50;;;;;;;1999.90;999.90;;;;;;;14.85;81.52;98923.09;8091417;29;20115;-78
2022/09/12 20:45:11;;;;;;;1999.90;999.90;;;;;;;14.82;81.94;98931.88;8084421;29;20056;-80
2022/09/12 20:49:33;;;;;;;1999.90;999.90;;;;;;;14.76;82.93;98933.84;8080985;29;20131;-80
2022/09/12 20:54:03;;;;;;;1999.90;999.90;;;;;;;14.77;82.83;98935.53;8079269;29;20295;-80
2022/09/12 20:58:32;;;;;;;1999.90;999.90;;;;;;;14.71;83.02;98926.09;8091067;29;20835;-81
2022/09/12 21:02:55;;;;;;;1999.90;999.90;;;;;;;14.66;82.77;98928.00;8090036;29;20041;-80
2022/09/12 21:07:24;;;;;;;1999.90;999.90;;;;;;;14.60;83.01;98928.19;8089580;29;20045;-80
2022/09/12 21:11:45;;;;;;;1999.90;999.90;;;;;;;14.58;83.67;98924.75;8085178;29;20060;-79
2022/09/12 21:16:13;;;;;;;1999.90;999.90;;;;;;;14.49;84.10;98917.16;8075609;29;20679;-80
2022/09/12 21:20:35;;;;;;;1999.90;999.90;;;;;;;14.43;84.86;98922.53;8080194;29;20088;-79
2022/09/12 21:24:57;;;;;;;1999.90;999.90;;;;;;;14.34;85.44;98923.63;8091504;29;20052;-80
2022/09/12 21:29:26;;;;;;;1999.90;999.90;;;;;;;14.29;85.09;98916.81;8082874;29;20040;-80
2022/09/12 21:33:47;;;;;;;1999.90;999.90;;;;;;;14.25;85.05;98916.06;8095172;29;20052;-80
2022/09/12 21:38:10;;;;;;;1999.90;999.90;;;;;;;14.20;85.09;98917.94;8086639;29;20053;-79
2022/09/12 21:42:38;;;;;;;1999.90;999.90;;;;;;;14.20;85.15;98907.50;8099136;29;20072;-79
2022/09/12 21:47:00;;;;;;;1999.90;999.90;;;;;;;14.12;85.32;98897.22;8083461;29;20058;-80
2022/09/12 21:51:22;;;;;;;1999.90;999.90;;;;;;;14.08;85.82;98897.38;8095488;29;20067;-80
2022/09/12 21:55:51;;;;;;;1999.90;999.90;;;;;;;14.00;85.76;98889.72;8104848;29;20103;-79
2022/09/12 22:00:14;;;;;;;1999.90;999.90;;;;;;;13.91;86.22;98910.84;8093948;29;20041;-79
2022/09/12 22:04:36;;;;;;;1999.90;999.90;;;;;;;13.87;86.95;98906.63;8083807;29;20351;-80
2022/09/12 22:08:58;;;;;;;1999.90;999.90;;;;;;;13.84;86.18;98909.31;8082311;29;20056;-80
2022/09/12 22:13:19;;;;;;;1999.90;999.90;;;;;;;13.77;86.78;98899.91;8096106;29;20488;-77
2022/09/12 22:17:41;;;;;;;1999.90;999.90;;;;;;;13.72;86.63;98902.63;8094981;29;20053;-80
2022/09/12 22:26:50;;;;;;;1999.90;999.90;;;;;;;13.62;86.43;98880.25;8096568;29;20053;-80
2022/09/12 22:31:13;;;;;;;1999.90;999.90;;;;;;;13.50;86.49;98881.44;8092609;29;20402;-80
2022/09/12 22:35:35;;;;;;;1999.90;999.90;;;;;;;13.47;87.04;98885.88;8096215;29;20675;-78
2022/09/12 22:40:03;;;;;;;1999.90;999.90;;;;;;;13.44;87.07;98894.63;8094440;29;20052;-80
2022/09/12 22:44:25;;;;;;;1999.90;999.90;;;;;;;13.41;87.12;98888.63;8082837;29;20068;-77
2022/09/12 22:48:47;;;;;;;1999.90;999.90;;;;;;;13.37;87.12;98876.56;8079554;29;20052;-78
2022/09/12 22:53:13;;;;;;;1999.90;999.90;;;;;;;13.34;87.03;98868.81;8092453;29;20447;-78
2022/09/12 22:57:38;;;;;;;1999.90;999.90;;;;;;;13.25;87.85;98870.72;8081825;29;20451;-79
2022/09/12 23:02:07;;;;;;;1999.90;999.90;;;;;;;13.16;87.89;98870.91;8085567;29;20048;-79
2022/09/12 23:06:34;;;;;;;1999.90;999.90;;;;;;;13.12;88.10;98869.28;8093358;29;20068;-79
2022/09/12 23:11:05;;;;;;;1999.90;999.90;;;;;;;13.09;88.08;98868.47;8093703;29;20048;-79
2022/09/12 23:15:33;;;;;;;;;;;;;;;13.07;87.95;98870.25;8092574;29;20067;-79
2022/09/12 23:20:15;;;;;;;1999.90;999.90;;;;;;;13.02;88.74;98865.16;8095171;29;19938;-79
2022/09/12 23:25:00;;;;;;;1999.90;999.90;;;;;;;12.99;89.18;98852.22;8092989;29;20645;-79
2022/09/12 23:29:27;;;;;;;1999.90;999.90;;;;;;;12.96;89.66;98845.31;8083678;29;20048;-79
2022/09/12 23:34:13;;;;;;;1999.90;999.90;;;;;;;12.93;89.84;98841.94;8393127;23;20053;-79
2022/09/12 23:38:35;;;;;;;1999.90;999.90;;;;;;;12.88;89.11;98843.75;8072249;29;20059;-79